sensor_id;sensor_type;location;lat;lon;timestamp;temperature;humidity
11908;DHT22;6014;47.690;9.130;2024-02-26T00:02:24;5.50;90.00
11908;DHT22;6014;47.690;9.130;2024-02-26T00:04:52;5.40;90.10
11908;DHT22;6014;47.690;9.130;2024-02-26T00:07:20;5.30;89.60
11908;DHT22;6014;47.690;9.130;2024-02-26T00:09:48;5.60;90.30
11908;DHT22;6014;47.690;9.130;2024-02-26T00:12:17;5.60;89.30
11908;DHT22;6014;47.690;9.130;2024-02-26T00:14:46;5.50;88.70
11908;DHT22;6014;47.690;9.130;2024-02-26T00:17:16;5.40;90.00
11908;DHT22;6014;47.690;9.130;2024-02-26T00:19:44;5.50;90.30
11908;DHT22;6014;47.690;9.130;2024-02-26T00:22:12;5.50;90.20
11908;DHT22;6014;47.690;9.130;2024-02-26T00:24:41;5.60;90.30
11908;DHT22;6014;47.690;9.130;2024-02-26T00:27:09;5.70;90.00
11908;DHT22;6014;47.690;9.130;2024-02-26T00:29:37;5.70;89.30
11908;DHT22;6014;47.690;9.130;2024-02-26T00:32:06;5.50;89.20
11908;DHT22;6014;47.690;9.130;2024-02-26T00:34:35;5.40;89.60
11908;DHT22;6014;47.690;9.130;2024-02-26T00:37:03;5.40;90.00
11908;DHT22;6014;47.690;9.130;2024-02-26T00:39:31;5.40;90.60
11908;DHT22;6014;47.690;9.130;2024-02-26T00:41:59;5.40;91.50
11908;DHT22;6014;47.690;9.130;2024-02-26T00:44:27;5.30;91.80
11908;DHT22;6014;47.690;9.130;2024-02-26T00:46:56;5.40;92.00
11908;DHT22;6014;47.690;9.130;2024-02-26T00:49:25;5.50;91.90
11908;DHT22;6014;47.690;9.130;2024-02-26T00:51:54;5.40;91.90
11908;DHT22;6014;47.690;9.130;2024-02-26T00:54:22;5.40;93.10
11908;DHT22;6014;47.690;9.130;2024-02-26T00:56:50;5.50;91.80
11908;DHT22;6014;47.690;9.130;2024-02-26T00:59:18;5.60;90.70
11908;DHT22;6014;47.690;9.130;2024-02-26T01:01:46;5.60;90.30
11908;DHT22;6014;47.690;9.130;2024-02-26T01:04:14;5.60;90.50
11908;DHT22;6014;47.690;9.130;2024-02-26T01:06:44;5.70;90.20
11908;DHT22;6014;47.690;9.130;2024-02-26T01:09:12;5.70;89.80
11908;DHT22;6014;47.690;9.130;2024-02-26T01:11:40;5.70;88.70
11908;DHT22;6014;47.690;9.130;2024-02-26T01:14:08;5.70;87.90
11908;DHT22;6014;47.690;9.130;2024-02-26T01:16:37;5.80;85.60
11908;DHT22;6014;47.690;9.130;2024-02-26T01:19:05;5.80;83.50
11908;DHT22;6014;47.690;9.130;2024-02-26T01:21:33;5.90;81.30
11908;DHT22;6014;47.690;9.130;2024-02-26T01:24:03;5.90;80.60
11908;DHT22;6014;47.690;9.130;2024-02-26T01:26:31;5.90;79.40
11908;DHT22;6014;47.690;9.130;2024-02-26T01:28:59;5.80;79.70
11908;DHT22;6014;47.690;9.130;2024-02-26T01:31:27;5.80;80.50
11908;DHT22;6014;47.690;9.130;2024-02-26T01:33:55;5.70;81.10
11908;DHT22;6014;47.690;9.130;2024-02-26T01:36:23;5.80;80.70
11908;DHT22;6014;47.690;9.130;2024-02-26T01:38:52;5.80;80.70
11908;DHT22;6014;47.690;9.130;2024-02-26T01:41:21;5.90;80.10
11908;DHT22;6014;47.690;9.130;2024-02-26T01:43:49;5.80;82.40
11908;DHT22;6014;47.690;9.130;2024-02-26T01:46:18;5.80;82.70
11908;DHT22;6014;47.690;9.130;2024-02-26T01:48:46;5.70;83.30
11908;DHT22;6014;47.690;9.130;2024-02-26T01:51:17;5.80;81.80
11908;DHT22;6014;47.690;9.130;2024-02-26T01:53:45;5.80;81.20
11908;DHT22;6014;47.690;9.130;2024-02-26T01:56:14;5.70;80.50
11908;DHT22;6014;47.690;9.130;2024-02-26T01:58:46;5.80;79.40
11908;DHT22;6014;47.690;9.130;2024-02-26T02:01:16;5.70;80.40
11908;DHT22;6014;47.690;9.130;2024-02-26T02:03:46;5.80;81.30
11908;DHT22;6014;47.690;9.130;2024-02-26T02:06:15;5.80;82.00
11908;DHT22;6014;47.690;9.130;2024-02-26T02:08:43;5.80;82.40
11908;DHT22;6014;47.690;9.130;2024-02-26T02:11:11;5.70;83.90
11908;DHT22;6014;47.690;9.130;2024-02-26T02:13:41;5.70;86.00
11908;DHT22;6014;47.690;9.130;2024-02-26T02:16:11;5.70;87.80
11908;DHT22;6014;47.690;9.130;2024-02-26T02:18:39;5.70;89.40
11908;DHT22;6014;47.690;9.130;2024-02-26T02:21:08;5.90;89.00
11908;DHT22;6014;47.690;9.130;2024-02-26T02:23:36;6.00;87.30
11908;DHT22;6014;47.690;9.130;2024-02-26T02:26:05;5.90;86.80
11908;DHT22;6014;47.690;9.130;2024-02-26T02:28:33;6.00;84.90
11908;DHT22;6014;47.690;9.130;2024-02-26T02:31:01;6.00;84.10
11908;DHT22;6014;47.690;9.130;2024-02-26T02:33:30;5.90;82.30
11908;DHT22;6014;47.690;9.130;2024-02-26T02:35:59;6.00;80.40
11908;DHT22;6014;47.690;9.130;2024-02-26T02:38:28;6.00;80.20
11908;DHT22;6014;47.690;9.130;2024-02-26T02:40:57;5.90;80.30
11908;DHT22;6014;47.690;9.130;2024-02-26T02:43:25;6.00;80.10
11908;DHT22;6014;47.690;9.130;2024-02-26T02:45:53;6.00;81.00
11908;DHT22;6014;47.690;9.130;2024-02-26T02:48:21;6.00;79.80
11908;DHT22;6014;47.690;9.130;2024-02-26T02:50:49;6.00;80.10
11908;DHT22;6014;47.690;9.130;2024-02-26T02:53:17;6.10;80.30
11908;DHT22;6014;47.690;9.130;2024-02-26T02:55:46;5.90;78.50
11908;DHT22;6014;47.690;9.130;2024-02-26T02:58:15;6.00;78.90
11908;DHT22;6014;47.690;9.130;2024-02-26T03:00:43;6.00;78.00
11908;DHT22;6014;47.690;9.130;2024-02-26T03:03:11;6.00;77.30
11908;DHT22;6014;47.690;9.130;2024-02-26T03:05:39;5.90;76.60
11908;DHT22;6014;47.690;9.130;2024-02-26T03:08:07;5.80;78.00
11908;DHT22;6014;47.690;9.130;2024-02-26T03:10:36;5.70;77.50
11908;DHT22;6014;47.690;9.130;2024-02-26T03:13:05;5.80;78.70
11908;DHT22;6014;47.690;9.130;2024-02-26T03:15:33;5.80;76.30
11908;DHT22;6014;47.690;9.130;2024-02-26T03:18:02;5.80;75.50
11908;DHT22;6014;47.690;9.130;2024-02-26T03:20:30;5.80;74.70
11908;DHT22;6014;47.690;9.130;2024-02-26T03:22:58;5.70;74.80
11908;DHT22;6014;47.690;9.130;2024-02-26T03:25:26;5.80;75.00
11908;DHT22;6014;47.690;9.130;2024-02-26T03:27:54;5.80;73.00
11908;DHT22;6014;47.690;9.130;2024-02-26T03:30:23;5.90;71.30
11908;DHT22;6014;47.690;9.130;2024-02-26T03:32:51;6.00;71.20
11908;DHT22;6014;47.690;9.130;2024-02-26T03:35:19;5.90;72.40
11908;DHT22;6014;47.690;9.130;2024-02-26T03:37:47;5.80;72.70
11908;DHT22;6014;47.690;9.130;2024-02-26T03:40:17;5.80;71.00
11908;DHT22;6014;47.690;9.130;2024-02-26T03:42:46;5.90;70.10
11908;DHT22;6014;47.690;9.130;2024-02-26T03:45:14;6.00;69.30
11908;DHT22;6014;47.690;9.130;2024-02-26T03:47:44;6.00;68.20
11908;DHT22;6014;47.690;9.130;2024-02-26T03:50:12;6.00;68.30
11908;DHT22;6014;47.690;9.130;2024-02-26T03:52:40;5.90;70.50
11908;DHT22;6014;47.690;9.130;2024-02-26T03:55:08;5.90;72.20
11908;DHT22;6014;47.690;9.130;2024-02-26T03:57:37;5.80;70.80
11908;DHT22;6014;47.690;9.130;2024-02-26T04:00:06;5.60;69.50
11908;DHT22;6014;47.690;9.130;2024-02-26T04:02:34;5.60;70.20
11908;DHT22;6014;47.690;9.130;2024-02-26T04:05:04;5.50;71.30
11908;DHT22;6014;47.690;9.130;2024-02-26T04:07:32;5.50;69.20
11908;DHT22;6014;47.690;9.130;2024-02-26T04:10:00;5.50;68.90
11908;DHT22;6014;47.690;9.130;2024-02-26T04:12:32;5.50;70.60
11908;DHT22;6014;47.690;9.130;2024-02-26T04:15:00;5.40;70.00
11908;DHT22;6014;47.690;9.130;2024-02-26T04:17:29;5.50;70.60
11908;DHT22;6014;47.690;9.130;2024-02-26T04:19:57;5.50;70.70
11908;DHT22;6014;47.690;9.130;2024-02-26T04:22:27;5.50;71.30
11908;DHT22;6014;47.690;9.130;2024-02-26T04:24:55;5.40;73.80
11908;DHT22;6014;47.690;9.130;2024-02-26T04:27:23;5.50;74.40
11908;DHT22;6014;47.690;9.130;2024-02-26T04:29:51;5.30;75.80
11908;DHT22;6014;47.690;9.130;2024-02-26T04:32:19;5.30;77.30
11908;DHT22;6014;47.690;9.130;2024-02-26T04:34:47;5.30;78.00
11908;DHT22;6014;47.690;9.130;2024-02-26T04:37:15;5.40;78.50
11908;DHT22;6014;47.690;9.130;2024-02-26T04:39:45;5.20;78.60
11908;DHT22;6014;47.690;9.130;2024-02-26T04:42:16;5.40;79.00
11908;DHT22;6014;47.690;9.130;2024-02-26T04:44:45;5.50;78.60
11908;DHT22;6014;47.690;9.130;2024-02-26T04:47:13;5.50;78.20
11908;DHT22;6014;47.690;9.130;2024-02-26T04:49:41;5.60;77.70
11908;DHT22;6014;47.690;9.130;2024-02-26T04:52:09;5.70;77.90
11908;DHT22;6014;47.690;9.130;2024-02-26T04:54:37;5.70;78.70
11908;DHT22;6014;47.690;9.130;2024-02-26T04:57:06;5.70;80.80
11908;DHT22;6014;47.690;9.130;2024-02-26T04:59:34;5.70;80.70
11908;DHT22;6014;47.690;9.130;2024-02-26T05:02:03;5.80;79.00
11908;DHT22;6014;47.690;9.130;2024-02-26T05:04:31;6.00;76.60
11908;DHT22;6014;47.690;9.130;2024-02-26T05:06:59;6.00;75.00
11908;DHT22;6014;47.690;9.130;2024-02-26T05:09:28;6.00;75.10
11908;DHT22;6014;47.690;9.130;2024-02-26T05:11:56;6.00;73.70
11908;DHT22;6014;47.690;9.130;2024-02-26T05:14:25;6.10;72.70
11908;DHT22;6014;47.690;9.130;2024-02-26T05:16:53;6.00;73.40
11908;DHT22;6014;47.690;9.130;2024-02-26T05:19:21;6.00;74.00
11908;DHT22;6014;47.690;9.130;2024-02-26T05:21:49;6.00;72.80
11908;DHT22;6014;47.690;9.130;2024-02-26T05:24:17;6.10;71.20
11908;DHT22;6014;47.690;9.130;2024-02-26T05:26:49;6.00;70.00
11908;DHT22;6014;47.690;9.130;2024-02-26T05:29:17;6.00;69.10
11908;DHT22;6014;47.690;9.130;2024-02-26T05:31:47;6.00;65.60
11908;DHT22;6014;47.690;9.130;2024-02-26T05:34:15;6.00;62.70
11908;DHT22;6014;47.690;9.130;2024-02-26T05:36:43;6.00;61.90
11908;DHT22;6014;47.690;9.130;2024-02-26T05:39:11;6.00;60.00
11908;DHT22;6014;47.690;9.130;2024-02-26T05:41:45;5.90;60.00
11908;DHT22;6014;47.690;9.130;2024-02-26T05:44:13;6.00;60.00
11908;DHT22;6014;47.690;9.130;2024-02-26T05:46:42;6.00;60.00
11908;DHT22;6014;47.690;9.130;2024-02-26T05:49:12;5.80;59.80
11908;DHT22;6014;47.690;9.130;2024-02-26T05:51:40;5.90;60.90
11908;DHT22;6014;47.690;9.130;2024-02-26T05:54:08;5.60;61.50
11908;DHT22;6014;47.690;9.130;2024-02-26T05:56:36;5.80;63.10
11908;DHT22;6014;47.690;9.130;2024-02-26T05:59:05;5.80;62.60
11908;DHT22;6014;47.690;9.130;2024-02-26T06:01:33;5.80;61.70
11908;DHT22;6014;47.690;9.130;2024-02-26T06:04:01;5.90;61.00
11908;DHT22;6014;47.690;9.130;2024-02-26T06:06:31;5.90;60.80
11908;DHT22;6014;47.690;9.130;2024-02-26T06:08:59;5.80;60.20
11908;DHT22;6014;47.690;9.130;2024-02-26T06:11:27;5.80;60.50
11908;DHT22;6014;47.690;9.130;2024-02-26T06:13:55;5.80;59.80
11908;DHT22;6014;47.690;9.130;2024-02-26T06:16:25;5.80;60.30
11908;DHT22;6014;47.690;9.130;2024-02-26T06:18:53;5.70;60.80
11908;DHT22;6014;47.690;9.130;2024-02-26T06:21:21;5.70;60.80
11908;DHT22;6014;47.690;9.130;2024-02-26T06:23:51;5.80;61.40
11908;DHT22;6014;47.690;9.130;2024-02-26T06:26:19;5.80;61.20
11908;DHT22;6014;47.690;9.130;2024-02-26T06:28:47;5.80;61.80
11908;DHT22;6014;47.690;9.130;2024-02-26T06:31:15;5.80;62.30
11908;DHT22;6014;47.690;9.130;2024-02-26T06:33:44;5.80;63.00
11908;DHT22;6014;47.690;9.130;2024-02-26T06:36:12;5.80;62.80
11908;DHT22;6014;47.690;9.130;2024-02-26T06:38:40;5.70;64.60
11908;DHT22;6014;47.690;9.130;2024-02-26T06:41:10;5.60;65.20
11908;DHT22;6014;47.690;9.130;2024-02-26T06:43:38;5.50;67.50
11908;DHT22;6014;47.690;9.130;2024-02-26T06:46:06;5.60;67.50
11908;DHT22;6014;47.690;9.130;2024-02-26T06:48:34;5.40;66.00
11908;DHT22;6014;47.690;9.130;2024-02-26T06:51:04;5.40;66.20
11908;DHT22;6014;47.690;9.130;2024-02-26T06:53:32;5.40;67.10
11908;DHT22;6014;47.690;9.130;2024-02-26T06:56:00;5.50;68.20
11908;DHT22;6014;47.690;9.130;2024-02-26T06:58:29;5.60;67.00
11908;DHT22;6014;47.690;9.130;2024-02-26T07:00:57;5.70;67.60
11908;DHT22;6014;47.690;9.130;2024-02-26T07:03:25;5.70;68.00
11908;DHT22;6014;47.690;9.130;2024-02-26T07:05:54;5.70;67.10
11908;DHT22;6014;47.690;9.130;2024-02-26T07:08:22;5.60;67.40
11908;DHT22;6014;47.690;9.130;2024-02-26T07:10:50;5.70;66.60
11908;DHT22;6014;47.690;9.130;2024-02-26T07:13:18;5.80;66.30
11908;DHT22;6014;47.690;9.130;2024-02-26T07:15:49;6.10;65.80
11908;DHT22;6014;47.690;9.130;2024-02-26T07:18:17;6.60;63.70
11908;DHT22;6014;47.690;9.130;2024-02-26T07:20:46;6.70;60.00
11908;DHT22;6014;47.690;9.130;2024-02-26T07:23:14;7.00;59.30
11908;DHT22;6014;47.690;9.130;2024-02-26T07:25:41;6.90;57.90
11908;DHT22;6014;47.690;9.130;2024-02-26T07:28:14;6.80;58.70
11908;DHT22;6014;47.690;9.130;2024-02-26T07:30:42;6.80;58.80
11908;DHT22;6014;47.690;9.130;2024-02-26T07:33:11;6.80;59.20
11908;DHT22;6014;47.690;9.130;2024-02-26T07:35:40;6.80;58.20
11908;DHT22;6014;47.690;9.130;2024-02-26T07:38:08;6.80;58.10
11908;DHT22;6014;47.690;9.130;2024-02-26T07:40:53;6.80;58.40
11908;DHT22;6014;47.690;9.130;2024-02-26T07:43:29;6.90;58.80
11908;DHT22;6014;47.690;9.130;2024-02-26T07:45:57;6.90;58.50
11908;DHT22;6014;47.690;9.130;2024-02-26T07:48:27;7.10;57.80
11908;DHT22;6014;47.690;9.130;2024-02-26T07:50:55;7.30;56.80
11908;DHT22;6014;47.690;9.130;2024-02-26T07:53:23;7.40;56.20
11908;DHT22;6014;47.690;9.130;2024-02-26T07:55:51;7.40;55.30
11908;DHT22;6014;47.690;9.130;2024-02-26T07:58:19;7.50;55.30
11908;DHT22;6014;47.690;9.130;2024-02-26T08:00:47;7.40;54.70
11908;DHT22;6014;47.690;9.130;2024-02-26T08:03:15;7.40;54.80
11908;DHT22;6014;47.690;9.130;2024-02-26T08:05:45;7.50;55.10
11908;DHT22;6014;47.690;9.130;2024-02-26T08:08:13;7.60;55.90
11908;DHT22;6014;47.690;9.130;2024-02-26T08:10:41;7.90;55.40
11908;DHT22;6014;47.690;9.130;2024-02-26T08:13:09;8.00;55.00
11908;DHT22;6014;47.690;9.130;2024-02-26T08:15:37;8.10;55.30
11908;DHT22;6014;47.690;9.130;2024-02-26T08:18:05;8.20;54.40
11908;DHT22;6014;47.690;9.130;2024-02-26T08:20:34;8.20;54.30
11908;DHT22;6014;47.690;9.130;2024-02-26T08:23:04;8.20;54.30
11908;DHT22;6014;47.690;9.130;2024-02-26T08:25:32;8.80;50.80
11908;DHT22;6014;47.690;9.130;2024-02-26T08:28:01;8.90;49.60
11908;DHT22;6014;47.690;9.130;2024-02-26T08:30:29;9.00;49.20
11908;DHT22;6014;47.690;9.130;2024-02-26T08:32:57;9.30;47.70
11908;DHT22;6014;47.690;9.130;2024-02-26T08:35:26;9.70;47.80
11908;DHT22;6014;47.690;9.130;2024-02-26T08:37:54;9.70;45.50
11908;DHT22;6014;47.690;9.130;2024-02-26T08:40:23;10.00;44.30
11908;DHT22;6014;47.690;9.130;2024-02-26T08:42:51;9.60;44.70
11908;DHT22;6014;47.690;9.130;2024-02-26T08:45:19;9.50;44.30
11908;DHT22;6014;47.690;9.130;2024-02-26T08:47:48;9.20;45.30
11908;DHT22;6014;47.690;9.130;2024-02-26T08:50:16;9.50;44.80
11908;DHT22;6014;47.690;9.130;2024-02-26T08:52:44;9.70;43.50
11908;DHT22;6014;47.690;9.130;2024-02-26T08:55:15;10.00;42.10
11908;DHT22;6014;47.690;9.130;2024-02-26T08:57:44;10.40;41.20
11908;DHT22;6014;47.690;9.130;2024-02-26T09:00:13;10.50;40.00
11908;DHT22;6014;47.690;9.130;2024-02-26T09:02:42;10.60;40.10
11908;DHT22;6014;47.690;9.130;2024-02-26T09:05:11;10.90;39.70
11908;DHT22;6014;47.690;9.130;2024-02-26T09:07:39;11.30;39.30
11908;DHT22;6014;47.690;9.130;2024-02-26T09:10:08;11.40;38.20
11908;DHT22;6014;47.690;9.130;2024-02-26T09:12:37;11.00;39.10
11908;DHT22;6014;47.690;9.130;2024-02-26T09:15:08;10.70;38.60
11908;DHT22;6014;47.690;9.130;2024-02-26T09:17:37;10.20;38.90
11908;DHT22;6014;47.690;9.130;2024-02-26T09:20:06;10.30;40.10
11908;DHT22;6014;47.690;9.130;2024-02-26T09:22:36;10.60;40.30
11908;DHT22;6014;47.690;9.130;2024-02-26T09:25:06;11.10;39.30
11908;DHT22;6014;47.690;9.130;2024-02-26T09:27:34;11.10;37.20
11908;DHT22;6014;47.690;9.130;2024-02-26T09:30:05;11.40;38.60
11908;DHT22;6014;47.690;9.130;2024-02-26T09:32:34;11.80;36.60
11908;DHT22;6014;47.690;9.130;2024-02-26T09:35:03;12.00;36.20
11908;DHT22;6014;47.690;9.130;2024-02-26T09:37:31;12.10;35.30
11908;DHT22;6014;47.690;9.130;2024-02-26T09:39:59;11.80;34.90
11908;DHT22;6014;47.690;9.130;2024-02-26T09:42:27;11.00;35.90
11908;DHT22;6014;47.690;9.130;2024-02-26T09:45:00;10.70;37.20
11908;DHT22;6014;47.690;9.130;2024-02-26T09:47:31;10.40;37.50
11908;DHT22;6014;47.690;9.130;2024-02-26T09:50:01;10.40;37.90
11908;DHT22;6014;47.690;9.130;2024-02-26T09:52:31;10.60;38.30
11908;DHT22;6014;47.690;9.130;2024-02-26T09:55:01;10.50;38.10
11908;DHT22;6014;47.690;9.130;2024-02-26T09:57:31;10.40;37.60
11908;DHT22;6014;47.690;9.130;2024-02-26T09:59:59;10.30;38.10
11908;DHT22;6014;47.690;9.130;2024-02-26T10:02:33;10.40;37.60
11908;DHT22;6014;47.690;9.130;2024-02-26T10:05:05;10.50;37.60
11908;DHT22;6014;47.690;9.130;2024-02-26T10:07:35;10.30;38.10
11908;DHT22;6014;47.690;9.130;2024-02-26T10:10:04;10.40;37.70
11908;DHT22;6014;47.690;9.130;2024-02-26T10:12:32;10.50;38.60
11908;DHT22;6014;47.690;9.130;2024-02-26T10:15:00;10.40;37.50
11908;DHT22;6014;47.690;9.130;2024-02-26T10:17:29;10.50;38.00
11908;DHT22;6014;47.690;9.130;2024-02-26T10:20:14;10.50;37.50
11908;DHT22;6014;47.690;9.130;2024-02-26T10:22:43;10.60;37.70
11908;DHT22;6014;47.690;9.130;2024-02-26T10:25:11;10.70;36.70
11908;DHT22;6014;47.690;9.130;2024-02-26T10:27:41;10.40;37.00
11908;DHT22;6014;47.690;9.130;2024-02-26T10:30:19;10.30;38.10
11908;DHT22;6014;47.690;9.130;2024-02-26T10:32:49;10.30;38.20
11908;DHT22;6014;47.690;9.130;2024-02-26T10:35:19;10.10;37.90
11908;DHT22;6014;47.690;9.130;2024-02-26T10:37:49;10.10;38.30
11908;DHT22;6014;47.690;9.130;2024-02-26T10:40:17;10.20;38.80
11908;DHT22;6014;47.690;9.130;2024-02-26T10:42:45;9.90;39.40
11908;DHT22;6014;47.690;9.130;2024-02-26T10:45:13;9.80;40.80
11908;DHT22;6014;47.690;9.130;2024-02-26T10:47:42;9.70;40.10
11908;DHT22;6014;47.690;9.130;2024-02-26T10:50:13;9.70;41.00
11908;DHT22;6014;47.690;9.130;2024-02-26T10:52:43;9.50;40.80
11908;DHT22;6014;47.690;9.130;2024-02-26T10:55:15;9.40;41.30
11908;DHT22;6014;47.690;9.130;2024-02-26T10:57:46;9.40;41.70
11908;DHT22;6014;47.690;9.130;2024-02-26T11:00:16;9.50;41.30
11908;DHT22;6014;47.690;9.130;2024-02-26T11:02:45;9.50;41.20
11908;DHT22;6014;47.690;9.130;2024-02-26T11:05:14;9.50;41.30
11908;DHT22;6014;47.690;9.130;2024-02-26T11:07:44;9.50;41.40
11908;DHT22;6014;47.690;9.130;2024-02-26T11:10:15;9.60;41.40
11908;DHT22;6014;47.690;9.130;2024-02-26T11:12:44;9.70;42.00
11908;DHT22;6014;47.690;9.130;2024-02-26T11:15:14;9.70;41.50
11908;DHT22;6014;47.690;9.130;2024-02-26T11:17:44;9.70;41.30
11908;DHT22;6014;47.690;9.130;2024-02-26T11:20:12;9.70;40.60
11908;DHT22;6014;47.690;9.130;2024-02-26T11:22:41;9.70;40.80
11908;DHT22;6014;47.690;9.130;2024-02-26T11:25:11;9.70;41.20
11908;DHT22;6014;47.690;9.130;2024-02-26T11:27:43;9.70;41.50
11908;DHT22;6014;47.690;9.130;2024-02-26T11:30:13;9.70;41.80
11908;DHT22;6014;47.690;9.130;2024-02-26T11:32:44;9.70;41.50
11908;DHT22;6014;47.690;9.130;2024-02-26T11:35:13;9.70;41.60
11908;DHT22;6014;47.690;9.130;2024-02-26T11:37:52;9.90;41.10
11908;DHT22;6014;47.690;9.130;2024-02-26T11:40:23;10.00;40.00
11908;DHT22;6014;47.690;9.130;2024-02-26T11:42:53;10.10;40.40
11908;DHT22;6014;47.690;9.130;2024-02-26T11:45:50;10.00;40.20
11908;DHT22;6014;47.690;9.130;2024-02-26T11:48:23;10.10;40.20
11908;DHT22;6014;47.690;9.130;2024-02-26T11:50:53;10.20;40.90
11908;DHT22;6014;47.690;9.130;2024-02-26T11:53:23;10.10;39.30
11908;DHT22;6014;47.690;9.130;2024-02-26T11:56:24;10.10;39.70
11908;DHT22;6014;47.690;9.130;2024-02-26T11:59:02;10.20;39.80
11908;DHT22;6014;47.690;9.130;2024-02-26T12:01:44;10.40;39.80
11908;DHT22;6014;47.690;9.130;2024-02-26T12:04:17;10.40;39.30
11908;DHT22;6014;47.690;9.130;2024-02-26T12:06:49;10.60;40.30
11908;DHT22;6014;47.690;9.130;2024-02-26T12:09:35;10.70;39.30
11908;DHT22;6014;47.690;9.130;2024-02-26T12:12:18;11.00;38.60
11908;DHT22;6014;47.690;9.130;2024-02-26T12:14:51;11.00;38.90
11908;DHT22;6014;47.690;9.130;2024-02-26T12:17:21;11.20;38.10
11908;DHT22;6014;47.690;9.130;2024-02-26T12:19:50;11.20;37.30
11908;DHT22;6014;47.690;9.130;2024-02-26T12:22:20;11.20;37.30
11908;DHT22;6014;47.690;9.130;2024-02-26T12:24:58;11.20;37.70
11908;DHT22;6014;47.690;9.130;2024-02-26T12:27:29;11.30;38.10
11908;DHT22;6014;47.690;9.130;2024-02-26T12:29:57;11.20;37.30
11908;DHT22;6014;47.690;9.130;2024-02-26T12:32:25;11.40;37.20
11908;DHT22;6014;47.690;9.130;2024-02-26T12:34:53;11.40;37.40
11908;DHT22;6014;47.690;9.130;2024-02-26T12:37:21;11.50;37.50
11908;DHT22;6014;47.690;9.130;2024-02-26T12:39:50;11.50;37.10
11908;DHT22;6014;47.690;9.130;2024-02-26T12:42:17;11.40;37.50
11908;DHT22;6014;47.690;9.130;2024-02-26T12:44:46;11.70;38.20
11908;DHT22;6014;47.690;9.130;2024-02-26T12:47:14;11.80;37.80
11908;DHT22;6014;47.690;9.130;2024-02-26T12:49:43;11.80;37.50
11908;DHT22;6014;47.690;9.130;2024-02-26T12:52:14;11.80;37.60
11908;DHT22;6014;47.690;9.130;2024-02-26T12:54:42;12.00;37.90
11908;DHT22;6014;47.690;9.130;2024-02-26T12:57:18;12.20;36.70
11908;DHT22;6014;47.690;9.130;2024-02-26T12:59:47;12.20;36.80
11908;DHT22;6014;47.690;9.130;2024-02-26T13:02:15;12.60;36.60
11908;DHT22;6014;47.690;9.130;2024-02-26T13:04:44;12.30;36.20
11908;DHT22;6014;47.690;9.130;2024-02-26T13:07:12;12.50;36.20
11908;DHT22;6014;47.690;9.130;2024-02-26T13:09:40;12.70;35.80
11908;DHT22;6014;47.690;9.130;2024-02-26T13:12:09;12.60;36.20
11908;DHT22;6014;47.690;9.130;2024-02-26T13:14:58;12.60;37.20
11908;DHT22;6014;47.690;9.130;2024-02-26T13:17:26;12.60;36.10
11908;DHT22;6014;47.690;9.130;2024-02-26T13:19:55;12.80;36.10
11908;DHT22;6014;47.690;9.130;2024-02-26T13:22:35;12.90;36.40
11908;DHT22;6014;47.690;9.130;2024-02-26T13:25:25;13.10;35.70
11908;DHT22;6014;47.690;9.130;2024-02-26T13:27:53;13.10;35.40
11908;DHT22;6014;47.690;9.130;2024-02-26T13:30:33;12.90;36.00
11908;DHT22;6014;47.690;9.130;2024-02-26T13:33:08;12.80;37.00
11908;DHT22;6014;47.690;9.130;2024-02-26T13:35:37;12.90;36.10
11908;DHT22;6014;47.690;9.130;2024-02-26T13:38:05;13.10;35.70
11908;DHT22;6014;47.690;9.130;2024-02-26T13:40:34;13.10;35.00
11908;DHT22;6014;47.690;9.130;2024-02-26T13:43:03;13.00;35.50
11908;DHT22;6014;47.690;9.130;2024-02-26T13:45:36;13.00;35.30
11908;DHT22;6014;47.690;9.130;2024-02-26T13:48:07;12.90;36.40
11908;DHT22;6014;47.690;9.130;2024-02-26T13:50:37;12.90;35.50
11908;DHT22;6014;47.690;9.130;2024-02-26T13:53:05;12.90;35.30
11908;DHT22;6014;47.690;9.130;2024-02-26T13:55:33;12.80;34.90
11908;DHT22;6014;47.690;9.130;2024-02-26T13:58:02;12.90;34.60
11908;DHT22;6014;47.690;9.130;2024-02-26T14:00:30;12.90;35.60
11908;DHT22;6014;47.690;9.130;2024-02-26T14:03:03;12.90;35.30
11908;DHT22;6014;47.690;9.130;2024-02-26T14:05:32;12.90;35.30
11908;DHT22;6014;47.690;9.130;2024-02-26T14:08:00;12.90;34.60
11908;DHT22;6014;47.690;9.130;2024-02-26T14:10:28;12.80;34.90
11908;DHT22;6014;47.690;9.130;2024-02-26T14:12:58;12.80;35.20
11908;DHT22;6014;47.690;9.130;2024-02-26T14:15:27;12.80;35.20
11908;DHT22;6014;47.690;9.130;2024-02-26T14:17:56;12.80;35.60
11908;DHT22;6014;47.690;9.130;2024-02-26T14:20:26;12.80;35.60
11908;DHT22;6014;47.690;9.130;2024-02-26T14:22:54;12.80;36.80
11908;DHT22;6014;47.690;9.130;2024-02-26T14:25:22;12.80;36.60
11908;DHT22;6014;47.690;9.130;2024-02-26T14:27:55;12.80;37.20
11908;DHT22;6014;47.690;9.130;2024-02-26T14:30:25;12.70;37.80
11908;DHT22;6014;47.690;9.130;2024-02-26T14:32:54;12.70;37.40
11908;DHT22;6014;47.690;9.130;2024-02-26T14:35:22;12.60;37.70
11908;DHT22;6014;47.690;9.130;2024-02-26T14:37:52;12.50;37.70
11908;DHT22;6014;47.690;9.130;2024-02-26T14:40:21;12.40;38.30
11908;DHT22;6014;47.690;9.130;2024-02-26T14:42:49;12.20;38.70
11908;DHT22;6014;47.690;9.130;2024-02-26T14:45:17;12.20;39.50
11908;DHT22;6014;47.690;9.130;2024-02-26T14:47:46;12.10;39.60
11908;DHT22;6014;47.690;9.130;2024-02-26T14:50:14;11.90;40.10
11908;DHT22;6014;47.690;9.130;2024-02-26T14:52:42;11.80;39.60
11908;DHT22;6014;47.690;9.130;2024-02-26T14:55:11;11.60;39.90
11908;DHT22;6014;47.690;9.130;2024-02-26T14:57:39;11.60;40.30
11908;DHT22;6014;47.690;9.130;2024-02-26T15:00:09;11.60;40.40
11908;DHT22;6014;47.690;9.130;2024-02-26T15:02:53;11.50;40.80
11908;DHT22;6014;47.690;9.130;2024-02-26T15:05:22;11.50;41.10
11908;DHT22;6014;47.690;9.130;2024-02-26T15:07:57;11.40;41.00
11908;DHT22;6014;47.690;9.130;2024-02-26T15:10:33;11.30;41.10
11908;DHT22;6014;47.690;9.130;2024-02-26T15:13:02;11.20;41.30
11908;DHT22;6014;47.690;9.130;2024-02-26T15:15:31;11.20;41.30
11908;DHT22;6014;47.690;9.130;2024-02-26T15:17:59;11.20;41.90
11908;DHT22;6014;47.690;9.130;2024-02-26T15:20:29;11.10;41.70
11908;DHT22;6014;47.690;9.130;2024-02-26T15:22:57;11.10;42.30
11908;DHT22;6014;47.690;9.130;2024-02-26T15:25:25;11.10;42.40
11908;DHT22;6014;47.690;9.130;2024-02-26T15:27:54;11.10;42.10
11908;DHT22;6014;47.690;9.130;2024-02-26T15:30:22;11.00;42.00
11908;DHT22;6014;47.690;9.130;2024-02-26T15:32:50;11.10;41.80
11908;DHT22;6014;47.690;9.130;2024-02-26T15:35:19;11.00;42.60
11908;DHT22;6014;47.690;9.130;2024-02-26T15:37:48;10.90;42.70
11908;DHT22;6014;47.690;9.130;2024-02-26T15:40:16;10.90;43.70
11908;DHT22;6014;47.690;9.130;2024-02-26T15:42:45;11.00;42.50
11908;DHT22;6014;47.690;9.130;2024-02-26T15:45:16;11.00;44.00
11908;DHT22;6014;47.690;9.130;2024-02-26T15:47:44;10.90;43.70
11908;DHT22;6014;47.690;9.130;2024-02-26T15:50:14;10.90;43.50
11908;DHT22;6014;47.690;9.130;2024-02-26T15:52:42;11.00;43.60
11908;DHT22;6014;47.690;9.130;2024-02-26T15:55:11;10.90;44.00
11908;DHT22;6014;47.690;9.130;2024-02-26T15:57:44;10.90;43.40
11908;DHT22;6014;47.690;9.130;2024-02-26T16:00:13;10.90;44.80
11908;DHT22;6014;47.690;9.130;2024-02-26T16:02:47;10.90;45.90
11908;DHT22;6014;47.690;9.130;2024-02-26T16:05:16;10.90;45.90
11908;DHT22;6014;47.690;9.130;2024-02-26T16:07:48;10.90;45.20
11908;DHT22;6014;47.690;9.130;2024-02-26T16:10:17;11.00;44.10